Werkendam, Netherlands
Current Conditions -  °F | °C
As of 1:05 PM on Sunday 21 Dec 2014 (Local Time) from EHGR Reporting Station
Overcast Overcast  
Wind Chill: 39°   Ceiling: 1700
Heat Index: 45°   Visibility: 6mi
Dew Point: 41°   Wind: 10mph
Humidity: 87%   Direction: 230°SW
Pressure: 30.3"   Gusts: NA
Location:  51.81°N, 4.89°E
Report Text: EHGR 211205Z AUTO 23009KT 9999 SCT014 BKN017 OVC020 07/05 Q1026 GRN
Loading
Personal Weather Stations






























Interactive Weather Map New forecast layout! Learn more

10-Day Weather Forecast

Advertisements
Track Severe Weather on mobile